sensor_id;sensor_type;location;lat;lon;timestamp;temperature;humidity
27540;DHT22;15906;52.046;4.724;2023-04-03T00:06:49;4.40;99.90
27540;DHT22;15906;52.046;4.724;2023-04-03T00:09:15;4.30;99.90
27540;DHT22;15906;52.046;4.724;2023-04-03T00:11:40;4.30;99.90
27540;DHT22;15906;52.046;4.724;2023-04-03T00:14:06;4.30;99.90
27540;DHT22;15906;52.046;4.724;2023-04-03T00:16:32;4.40;99.90
27540;DHT22;15906;52.046;4.724;2023-04-03T00:18:57;4.30;99.90
27540;DHT22;15906;52.046;4.724;2023-04-03T00:21:23;4.30;99.90
27540;DHT22;15906;52.046;4.724;2023-04-03T00:23:48;4.20;99.90
27540;DHT22;15906;52.046;4.724;2023-04-03T00:26:14;4.20;99.90
27540;DHT22;15906;52.046;4.724;2023-04-03T00:28:39;4.30;99.90
27540;DHT22;15906;52.046;4.724;2023-04-03T00:31:05;4.20;99.90
27540;DHT22;15906;52.046;4.724;2023-04-03T00:33:30;4.20;99.90
27540;DHT22;15906;52.046;4.724;2023-04-03T00:35:56;4.10;99.90
27540;DHT22;15906;52.046;4.724;2023-04-03T00:38:22;4.00;99.90
27540;DHT22;15906;52.046;4.724;2023-04-03T00:40:48;4.00;99.90
27540;DHT22;15906;52.046;4.724;2023-04-03T00:43:16;4.00;99.90
27540;DHT22;15906;52.046;4.724;2023-04-03T00:45:44;4.00;99.90
27540;DHT22;15906;52.046;4.724;2023-04-03T00:48:15;4.00;99.90
27540;DHT22;15906;52.046;4.724;2023-04-03T00:50:43;4.00;99.90
27540;DHT22;15906;52.046;4.724;2023-04-03T00:53:14;4.00;99.90
27540;DHT22;15906;52.046;4.724;2023-04-03T00:55:42;4.00;99.90
27540;DHT22;15906;52.046;4.724;2023-04-03T00:58:08;4.00;99.90
27540;DHT22;15906;52.046;4.724;2023-04-03T01:00:37;4.00;99.90
27540;DHT22;15906;52.046;4.724;2023-04-03T01:03:04;4.00;99.90
27540;DHT22;15906;52.046;4.724;2023-04-03T01:05:30;4.00;99.90
27540;DHT22;15906;52.046;4.724;2023-04-03T01:07:56;4.10;99.90
27540;DHT22;15906;52.046;4.724;2023-04-03T01:10:22;4.00;99.90
27540;DHT22;15906;52.046;4.724;2023-04-03T01:12:49;3.90;99.90
27540;DHT22;15906;52.046;4.724;2023-04-03T01:15:22;4.10;99.90
27540;DHT22;15906;52.046;4.724;2023-04-03T01:17:56;4.00;99.90
27540;DHT22;15906;52.046;4.724;2023-04-03T01:25:36;3.90;99.90
27540;DHT22;15906;52.046;4.724;2023-04-03T01:28:03;3.80;99.90
27540;DHT22;15906;52.046;4.724;2023-04-03T01:30:34;3.70;99.90
27540;DHT22;15906;52.046;4.724;2023-04-03T01:33:01;3.70;99.90
27540;DHT22;15906;52.046;4.724;2023-04-03T01:35:26;3.70;99.90
27540;DHT22;15906;52.046;4.724;2023-04-03T01:37:52;3.70;99.90
27540;DHT22;15906;52.046;4.724;2023-04-03T01:40:17;3.70;99.90
27540;DHT22;15906;52.046;4.724;2023-04-03T01:42:43;3.60;99.90
27540;DHT22;15906;52.046;4.724;2023-04-03T01:45:09;3.70;99.90
27540;DHT22;15906;52.046;4.724;2023-04-03T01:47:35;3.60;99.90
27540;DHT22;15906;52.046;4.724;2023-04-03T01:50:00;3.60;99.90
27540;DHT22;15906;52.046;4.724;2023-04-03T01:52:26;3.60;99.90
27540;DHT22;15906;52.046;4.724;2023-04-03T01:54:52;3.60;99.90
27540;DHT22;15906;52.046;4.724;2023-04-03T01:57:18;3.50;99.90
27540;DHT22;15906;52.046;4.724;2023-04-03T01:59:44;3.50;99.90
27540;DHT22;15906;52.046;4.724;2023-04-03T02:02:10;3.50;99.90
27540;DHT22;15906;52.046;4.724;2023-04-03T02:04:37;3.40;99.90
27540;DHT22;15906;52.046;4.724;2023-04-03T02:07:03;3.40;99.90
27540;DHT22;15906;52.046;4.724;2023-04-03T02:09:28;3.40;99.90
27540;DHT22;15906;52.046;4.724;2023-04-03T02:11:54;3.50;99.90
27540;DHT22;15906;52.046;4.724;2023-04-03T02:14:20;3.40;99.90
27540;DHT22;15906;52.046;4.724;2023-04-03T02:16:47;3.40;99.90
27540;DHT22;15906;52.046;4.724;2023-04-03T02:19:12;3.40;99.90
27540;DHT22;15906;52.046;4.724;2023-04-03T02:21:38;3.50;99.90
27540;DHT22;15906;52.046;4.724;2023-04-03T02:24:04;3.50;99.90
27540;DHT22;15906;52.046;4.724;2023-04-03T02:26:29;3.40;99.90
27540;DHT22;15906;52.046;4.724;2023-04-03T02:28:55;3.30;99.90
27540;DHT22;15906;52.046;4.724;2023-04-03T02:31:20;3.30;99.90
27540;DHT22;15906;52.046;4.724;2023-04-03T02:33:46;3.30;99.90
27540;DHT22;15906;52.046;4.724;2023-04-03T02:36:11;3.30;99.90
27540;DHT22;15906;52.046;4.724;2023-04-03T02:38:37;3.20;99.90
27540;DHT22;15906;52.046;4.724;2023-04-03T02:41:08;3.20;99.90
27540;DHT22;15906;52.046;4.724;2023-04-03T02:43:34;3.20;99.90
27540;DHT22;15906;52.046;4.724;2023-04-03T02:46:00;3.20;99.90
27540;DHT22;15906;52.046;4.724;2023-04-03T02:48:25;3.20;99.90
27540;DHT22;15906;52.046;4.724;2023-04-03T02:50:51;3.20;99.90
27540;DHT22;15906;52.046;4.724;2023-04-03T02:53:17;3.20;99.90
27540;DHT22;15906;52.046;4.724;2023-04-03T02:55:43;3.20;99.90
27540;DHT22;15906;52.046;4.724;2023-04-03T02:58:09;3.10;99.90
27540;DHT22;15906;52.046;4.724;2023-04-03T03:00:34;3.10;99.90
27540;DHT22;15906;52.046;4.724;2023-04-03T03:03:00;3.20;99.90
27540;DHT22;15906;52.046;4.724;2023-04-03T03:05:27;3.20;99.90
27540;DHT22;15906;52.046;4.724;2023-04-03T03:07:53;3.10;99.90
27540;DHT22;15906;52.046;4.724;2023-04-03T03:10:19;3.10;99.90
27540;DHT22;15906;52.046;4.724;2023-04-03T03:12:45;3.00;99.90
27540;DHT22;15906;52.046;4.724;2023-04-03T03:15:11;3.10;99.90
27540;DHT22;15906;52.046;4.724;2023-04-03T03:17:36;3.00;99.90
27540;DHT22;15906;52.046;4.724;2023-04-03T03:20:03;3.00;99.90
27540;DHT22;15906;52.046;4.724;2023-04-03T03:22:29;3.10;99.90
27540;DHT22;15906;52.046;4.724;2023-04-03T03:24:54;3.00;99.90
27540;DHT22;15906;52.046;4.724;2023-04-03T03:27:20;3.10;99.90
27540;DHT22;15906;52.046;4.724;2023-04-03T03:29:46;3.10;99.90
27540;DHT22;15906;52.046;4.724;2023-04-03T03:32:14;3.10;99.90
27540;DHT22;15906;52.046;4.724;2023-04-03T03:34:40;3.20;99.90
27540;DHT22;15906;52.046;4.724;2023-04-03T03:37:05;3.10;99.90
27540;DHT22;15906;52.046;4.724;2023-04-03T03:39:31;3.10;99.90
27540;DHT22;15906;52.046;4.724;2023-04-03T03:41:56;3.10;99.90
27540;DHT22;15906;52.046;4.724;2023-04-03T03:44:22;3.00;99.90
27540;DHT22;15906;52.046;4.724;2023-04-03T03:46:47;3.00;99.90
27540;DHT22;15906;52.046;4.724;2023-04-03T03:49:13;3.00;99.90
27540;DHT22;15906;52.046;4.724;2023-04-03T03:51:39;3.00;99.90
27540;DHT22;15906;52.046;4.724;2023-04-03T03:54:05;3.00;99.90
27540;DHT22;15906;52.046;4.724;2023-04-03T03:56:31;2.90;99.90
27540;DHT22;15906;52.046;4.724;2023-04-03T03:58:57;2.90;99.90
27540;DHT22;15906;52.046;4.724;2023-04-03T04:01:23;3.00;99.90
27540;DHT22;15906;52.046;4.724;2023-04-03T04:03:50;2.90;99.90
27540;DHT22;15906;52.046;4.724;2023-04-03T04:06:16;2.90;99.90
27540;DHT22;15906;52.046;4.724;2023-04-03T04:08:42;2.80;99.90
27540;DHT22;15906;52.046;4.724;2023-04-03T04:11:08;2.80;99.90
27540;DHT22;15906;52.046;4.724;2023-04-03T04:13:34;2.70;99.90
27540;DHT22;15906;52.046;4.724;2023-04-03T04:15:59;2.70;99.90
27540;DHT22;15906;52.046;4.724;2023-04-03T04:18:25;2.70;99.90
27540;DHT22;15906;52.046;4.724;2023-04-03T04:20:51;2.70;99.90
27540;DHT22;15906;52.046;4.724;2023-04-03T04:23:17;2.60;99.90
27540;DHT22;15906;52.046;4.724;2023-04-03T04:25:47;2.60;99.90
27540;DHT22;15906;52.046;4.724;2023-04-03T04:28:14;2.60;99.90
27540;DHT22;15906;52.046;4.724;2023-04-03T04:30:39;2.60;99.90
27540;DHT22;15906;52.046;4.724;2023-04-03T04:33:05;2.60;99.90
27540;DHT22;15906;52.046;4.724;2023-04-03T04:35:31;2.60;99.90
27540;DHT22;15906;52.046;4.724;2023-04-03T04:37:56;2.50;99.90
27540;DHT22;15906;52.046;4.724;2023-04-03T04:40:22;2.50;99.90
27540;DHT22;15906;52.046;4.724;2023-04-03T04:42:47;2.40;99.90
27540;DHT22;15906;52.046;4.724;2023-04-03T04:45:13;2.40;99.90
27540;DHT22;15906;52.046;4.724;2023-04-03T04:47:40;2.40;99.90
27540;DHT22;15906;52.046;4.724;2023-04-03T04:50:06;2.40;99.90
27540;DHT22;15906;52.046;4.724;2023-04-03T04:52:32;2.40;99.90
27540;DHT22;15906;52.046;4.724;2023-04-03T04:54:57;2.40;99.90
27540;DHT22;15906;52.046;4.724;2023-04-03T04:57:23;2.40;99.90
27540;DHT22;15906;52.046;4.724;2023-04-03T04:59:48;2.30;99.90
27540;DHT22;15906;52.046;4.724;2023-04-03T05:02:14;2.30;99.90
27540;DHT22;15906;52.046;4.724;2023-04-03T05:04:39;2.40;99.90
27540;DHT22;15906;52.046;4.724;2023-04-03T05:07:05;2.40;99.90
27540;DHT22;15906;52.046;4.724;2023-04-03T05:09:30;2.30;99.90
27540;DHT22;15906;52.046;4.724;2023-04-03T05:11:56;2.30;99.90
27540;DHT22;15906;52.046;4.724;2023-04-03T05:14:22;2.30;99.90
27540;DHT22;15906;52.046;4.724;2023-04-03T05:16:47;2.30;99.90
27540;DHT22;15906;52.046;4.724;2023-04-03T05:19:15;2.30;99.90
27540;DHT22;15906;52.046;4.724;2023-04-03T05:21:40;2.30;99.90
27540;DHT22;15906;52.046;4.724;2023-04-03T05:24:06;2.20;99.90
27540;DHT22;15906;52.046;4.724;2023-04-03T05:26:34;2.20;99.90
27540;DHT22;15906;52.046;4.724;2023-04-03T05:29:00;2.30;99.90
27540;DHT22;15906;52.046;4.724;2023-04-03T05:31:26;2.30;99.90
27540;DHT22;15906;52.046;4.724;2023-04-03T05:33:54;2.30;99.90
27540;DHT22;15906;52.046;4.724;2023-04-03T05:36:23;2.20;99.90
27540;DHT22;15906;52.046;4.724;2023-04-03T05:38:48;2.20;99.90
27540;DHT22;15906;52.046;4.724;2023-04-03T05:41:15;2.20;99.90
27540;DHT22;15906;52.046;4.724;2023-04-03T05:43:41;2.20;99.90
27540;DHT22;15906;52.046;4.724;2023-04-03T05:46:14;2.30;99.90
27540;DHT22;15906;52.046;4.724;2023-04-03T05:48:40;2.30;99.90
27540;DHT22;15906;52.046;4.724;2023-04-03T05:51:06;2.30;99.90
27540;DHT22;15906;52.046;4.724;2023-04-03T05:53:35;2.30;99.90
27540;DHT22;15906;52.046;4.724;2023-04-03T05:56:02;2.40;99.90
27540;DHT22;15906;52.046;4.724;2023-04-03T05:58:28;2.30;99.90
27540;DHT22;15906;52.046;4.724;2023-04-03T06:00:53;2.30;99.90
27540;DHT22;15906;52.046;4.724;2023-04-03T06:03:19;2.30;99.90
27540;DHT22;15906;52.046;4.724;2023-04-03T06:05:45;2.40;99.90
27540;DHT22;15906;52.046;4.724;2023-04-03T06:08:11;2.50;99.90
27540;DHT22;15906;52.046;4.724;2023-04-03T06:10:38;2.40;99.90
27540;DHT22;15906;52.046;4.724;2023-04-03T06:13:04;2.30;99.90
27540;DHT22;15906;52.046;4.724;2023-04-03T06:15:29;2.40;99.90
27540;DHT22;15906;52.046;4.724;2023-04-03T06:17:55;2.40;99.90
27540;DHT22;15906;52.046;4.724;2023-04-03T06:20:21;2.40;99.90
27540;DHT22;15906;52.046;4.724;2023-04-03T06:22:47;2.40;99.90
27540;DHT22;15906;52.046;4.724;2023-04-03T06:25:13;2.50;99.90
27540;DHT22;15906;52.046;4.724;2023-04-03T06:27:39;2.50;99.90
27540;DHT22;15906;52.046;4.724;2023-04-03T06:30:06;2.60;99.90
27540;DHT22;15906;52.046;4.724;2023-04-03T06:32:32;2.60;99.90
27540;DHT22;15906;52.046;4.724;2023-04-03T06:34:57;2.70;99.90
27540;DHT22;15906;52.046;4.724;2023-04-03T06:37:23;2.70;99.90
27540;DHT22;15906;52.046;4.724;2023-04-03T06:39:54;2.60;99.90
27540;DHT22;15906;52.046;4.724;2023-04-03T06:42:20;2.70;99.90
27540;DHT22;15906;52.046;4.724;2023-04-03T06:44:46;2.70;99.90
27540;DHT22;15906;52.046;4.724;2023-04-03T06:47:16;2.90;99.90
27540;DHT22;15906;52.046;4.724;2023-04-03T06:49:42;3.00;99.90
27540;DHT22;15906;52.046;4.724;2023-04-03T06:52:08;3.00;99.90
27540;DHT22;15906;52.046;4.724;2023-04-03T06:54:34;3.10;99.90
27540;DHT22;15906;52.046;4.724;2023-04-03T06:56:59;3.10;99.90
27540;DHT22;15906;52.046;4.724;2023-04-03T06:59:25;3.10;99.90
27540;DHT22;15906;52.046;4.724;2023-04-03T07:01:51;3.10;99.90
27540;DHT22;15906;52.046;4.724;2023-04-03T07:04:17;3.30;99.90
27540;DHT22;15906;52.046;4.724;2023-04-03T07:06:42;3.70;99.90
27540;DHT22;15906;52.046;4.724;2023-04-03T07:09:09;4.30;99.90
27540;DHT22;15906;52.046;4.724;2023-04-03T07:11:35;4.80;99.90
27540;DHT22;15906;52.046;4.724;2023-04-03T07:14:02;5.00;99.90
27540;DHT22;15906;52.046;4.724;2023-04-03T07:16:28;5.20;99.90
27540;DHT22;15906;52.046;4.724;2023-04-03T07:18:56;5.30;99.90
27540;DHT22;15906;52.046;4.724;2023-04-03T07:21:23;5.40;99.90
27540;DHT22;15906;52.046;4.724;2023-04-03T07:23:49;5.60;99.90
27540;DHT22;15906;52.046;4.724;2023-04-03T07:26:14;5.70;99.90
27540;DHT22;15906;52.046;4.724;2023-04-03T07:28:40;6.00;99.90
27540;DHT22;15906;52.046;4.724;2023-04-03T07:31:10;6.00;99.90
27540;DHT22;15906;52.046;4.724;2023-04-03T07:33:39;6.10;99.90
27540;DHT22;15906;52.046;4.724;2023-04-03T07:36:06;6.40;99.90
27540;DHT22;15906;52.046;4.724;2023-04-03T07:38:33;6.50;99.90
27540;DHT22;15906;52.046;4.724;2023-04-03T07:40:58;6.50;99.90
27540;DHT22;15906;52.046;4.724;2023-04-03T07:43:24;6.60;99.90
27540;DHT22;15906;52.046;4.724;2023-04-03T07:45:53;6.70;99.90
27540;DHT22;15906;52.046;4.724;2023-04-03T07:48:21;6.70;99.90
27540;DHT22;15906;52.046;4.724;2023-04-03T07:50:47;6.70;99.90
27540;DHT22;15906;52.046;4.724;2023-04-03T07:53:13;6.70;99.90
27540;DHT22;15906;52.046;4.724;2023-04-03T07:55:39;6.70;99.90
27540;DHT22;15906;52.046;4.724;2023-04-03T07:58:11;6.70;99.90
27540;DHT22;15906;52.046;4.724;2023-04-03T08:00:37;6.70;99.90
27540;DHT22;15906;52.046;4.724;2023-04-03T08:03:03;6.70;99.90
27540;DHT22;15906;52.046;4.724;2023-04-03T08:05:29;6.80;99.90
27540;DHT22;15906;52.046;4.724;2023-04-03T08:07:54;6.90;99.90
27540;DHT22;15906;52.046;4.724;2023-04-03T08:10:20;7.10;99.90
27540;DHT22;15906;52.046;4.724;2023-04-03T08:12:47;7.00;99.90
27540;DHT22;15906;52.046;4.724;2023-04-03T08:15:13;7.10;99.90
27540;DHT22;15906;52.046;4.724;2023-04-03T08:17:40;7.20;99.90
27540;DHT22;15906;52.046;4.724;2023-04-03T08:20:07;7.60;99.90
27540;DHT22;15906;52.046;4.724;2023-04-03T08:22:33;7.50;99.90
27540;DHT22;15906;52.046;4.724;2023-04-03T08:24:59;7.30;99.90
27540;DHT22;15906;52.046;4.724;2023-04-03T08:27:26;7.50;99.90
27540;DHT22;15906;52.046;4.724;2023-04-03T08:29:52;7.50;99.90
27540;DHT22;15906;52.046;4.724;2023-04-03T08:32:17;7.70;99.90
27540;DHT22;15906;52.046;4.724;2023-04-03T08:34:43;7.90;99.90
27540;DHT22;15906;52.046;4.724;2023-04-03T08:37:09;8.10;99.90
27540;DHT22;15906;52.046;4.724;2023-04-03T08:39:35;8.50;99.90
27540;DHT22;15906;52.046;4.724;2023-04-03T08:42:05;8.40;99.90
27540;DHT22;15906;52.046;4.724;2023-04-03T08:44:46;8.60;99.90
27540;DHT22;15906;52.046;4.724;2023-04-03T08:47:38;8.80;99.90
27540;DHT22;15906;52.046;4.724;2023-04-03T08:50:20;8.70;99.90
27540;DHT22;15906;52.046;4.724;2023-04-03T08:52:53;8.90;99.90
27540;DHT22;15906;52.046;4.724;2023-04-03T09:00:26;8.90;99.90
27540;DHT22;15906;52.046;4.724;2023-04-03T09:02:55;9.10;99.90
27540;DHT22;15906;52.046;4.724;2023-04-03T09:05:39;9.00;99.90
27540;DHT22;15906;52.046;4.724;2023-04-03T09:08:31;9.40;99.90
27540;DHT22;15906;52.046;4.724;2023-04-03T09:14:03;9.80;99.70
27540;DHT22;15906;52.046;4.724;2023-04-03T09:19:15;9.60;97.50
27540;DHT22;15906;52.046;4.724;2023-04-03T09:21:44;9.70;96.30
27540;DHT22;15906;52.046;4.724;2023-04-03T09:24:12;9.70;93.80
27540;DHT22;15906;52.046;4.724;2023-04-03T09:27:00;9.70;96.40
27540;DHT22;15906;52.046;4.724;2023-04-03T09:29:27;9.70;96.40
27540;DHT22;15906;52.046;4.724;2023-04-03T09:31:58;9.60;97.20
27540;DHT22;15906;52.046;4.724;2023-04-03T09:34:35;9.70;95.50
27540;DHT22;15906;52.046;4.724;2023-04-03T09:37:03;10.00;93.30
27540;DHT22;15906;52.046;4.724;2023-04-03T09:39:32;9.80;92.50
27540;DHT22;15906;52.046;4.724;2023-04-03T09:42:21;10.00;94.50
27540;DHT22;15906;52.046;4.724;2023-04-03T09:44:57;10.00;93.30
27540;DHT22;15906;52.046;4.724;2023-04-03T09:47:30;10.10;93.00
27540;DHT22;15906;52.046;4.724;2023-04-03T09:52:52;10.00;93.20
27540;DHT22;15906;52.046;4.724;2023-04-03T09:55:23;10.10;93.50
27540;DHT22;15906;52.046;4.724;2023-04-03T09:57:54;10.20;92.90
27540;DHT22;15906;52.046;4.724;2023-04-03T10:00:27;10.20;94.00
27540;DHT22;15906;52.046;4.724;2023-04-03T10:02:58;10.20;93.80
27540;DHT22;15906;52.046;4.724;2023-04-03T10:05:41;10.40;94.00
27540;DHT22;15906;52.046;4.724;2023-04-03T10:10:41;10.40;92.10
27540;DHT22;15906;52.046;4.724;2023-04-03T10:13:11;10.40;93.70
27540;DHT22;15906;52.046;4.724;2023-04-03T10:15:44;10.70;93.20
27540;DHT22;15906;52.046;4.724;2023-04-03T10:18:29;10.70;93.10
27540;DHT22;15906;52.046;4.724;2023-04-03T10:21:02;11.10;94.70
27540;DHT22;15906;52.046;4.724;2023-04-03T10:23:45;11.00;93.90
27540;DHT22;15906;52.046;4.724;2023-04-03T10:29:02;10.80;91.00
27540;DHT22;15906;52.046;4.724;2023-04-03T10:31:38;10.70;90.00
27540;DHT22;15906;52.046;4.724;2023-04-03T10:37:02;10.70;88.40
27540;DHT22;15906;52.046;4.724;2023-04-03T10:42:32;11.10;91.80
27540;DHT22;15906;52.046;4.724;2023-04-03T10:50:29;11.40;92.10
27540;DHT22;15906;52.046;4.724;2023-04-03T10:55:43;11.40;90.90
27540;DHT22;15906;52.046;4.724;2023-04-03T10:58:36;11.40;88.50
27540;DHT22;15906;52.046;4.724;2023-04-03T11:01:07;11.20;86.40
27540;DHT22;15906;52.046;4.724;2023-04-03T11:03:42;11.00;88.40
27540;DHT22;15906;52.046;4.724;2023-04-03T11:06:13;11.00;86.30
27540;DHT22;15906;52.046;4.724;2023-04-03T11:09:17;11.30;90.10
27540;DHT22;15906;52.046;4.724;2023-04-03T11:11:45;11.40;85.00
27540;DHT22;15906;52.046;4.724;2023-04-03T11:14:29;11.70;87.90
27540;DHT22;15906;52.046;4.724;2023-04-03T11:22:48;11.80;87.30
27540;DHT22;15906;52.046;4.724;2023-04-03T11:25:24;11.90;87.80
27540;DHT22;15906;52.046;4.724;2023-04-03T11:27:57;12.00;84.10
27540;DHT22;15906;52.046;4.724;2023-04-03T11:33:37;11.80;74.40
27540;DHT22;15906;52.046;4.724;2023-04-03T11:36:12;11.50;81.50
27540;DHT22;15906;52.046;4.724;2023-04-03T11:38:43;11.30;79.70
27540;DHT22;15906;52.046;4.724;2023-04-03T11:41:10;11.50;80.30
27540;DHT22;15906;52.046;4.724;2023-04-03T11:46:22;11.40;79.00
27540;DHT22;15906;52.046;4.724;2023-04-03T11:48:50;11.60;79.50
27540;DHT22;15906;52.046;4.724;2023-04-03T11:53:54;11.50;78.00
27540;DHT22;15906;52.046;4.724;2023-04-03T12:01:48;11.30;74.60
27540;DHT22;15906;52.046;4.724;2023-04-03T12:04:16;11.50;78.40
27540;DHT22;15906;52.046;4.724;2023-04-03T12:07:11;11.50;76.90
27540;DHT22;15906;52.046;4.724;2023-04-03T12:12:35;11.50;77.60
27540;DHT22;15906;52.046;4.724;2023-04-03T12:15:22;11.80;73.50
27540;DHT22;15906;52.046;4.724;2023-04-03T12:17:48;11.90;78.20
27540;DHT22;15906;52.046;4.724;2023-04-03T12:25:50;11.60;76.80
27540;DHT22;15906;52.046;4.724;2023-04-03T12:28:16;11.70;79.30
27540;DHT22;15906;52.046;4.724;2023-04-03T12:30:42;11.70;78.80
27540;DHT22;15906;52.046;4.724;2023-04-03T12:33:23;11.50;78.00
27540;DHT22;15906;52.046;4.724;2023-04-03T12:36:41;11.70;80.70
27540;DHT22;15906;52.046;4.724;2023-04-03T12:41:43;11.60;81.10
27540;DHT22;15906;52.046;4.724;2023-04-03T12:46:51;11.80;79.10
27540;DHT22;15906;52.046;4.724;2023-04-03T12:49:26;11.60;79.00
27540;DHT22;15906;52.046;4.724;2023-04-03T12:51:55;11.60;75.80
27540;DHT22;15906;52.046;4.724;2023-04-03T12:54:32;11.60;82.20
27540;DHT22;15906;52.046;4.724;2023-04-03T12:59:42;11.90;79.50
27540;DHT22;15906;52.046;4.724;2023-04-03T13:02:32;11.70;81.30
27540;DHT22;15906;52.046;4.724;2023-04-03T13:05:06;11.50;79.50
27540;DHT22;15906;52.046;4.724;2023-04-03T13:07:36;11.40;80.30
27540;DHT22;15906;52.046;4.724;2023-04-03T13:12:33;11.20;80.50
27540;DHT22;15906;52.046;4.724;2023-04-03T13:15:11;11.20;83.90
27540;DHT22;15906;52.046;4.724;2023-04-03T13:17:39;11.50;83.90
27540;DHT22;15906;52.046;4.724;2023-04-03T13:20:32;11.50;80.40
27540;DHT22;15906;52.046;4.724;2023-04-03T13:23:07;11.70;83.30
27540;DHT22;15906;52.046;4.724;2023-04-03T13:25:37;11.60;81.90
27540;DHT22;15906;52.046;4.724;2023-04-03T13:28:07;11.50;82.70
27540;DHT22;15906;52.046;4.724;2023-04-03T13:30:37;11.60;83.90
27540;DHT22;15906;52.046;4.724;2023-04-03T13:33:06;11.70;83.70
27540;DHT22;15906;52.046;4.724;2023-04-03T13:35:40;11.40;82.30
27540;DHT22;15906;52.046;4.724;2023-04-03T13:40:52;11.50;79.60
27540;DHT22;15906;52.046;4.724;2023-04-03T13:43:25;11.50;80.40
27540;DHT22;15906;52.046;4.724;2023-04-03T13:46:03;11.40;77.30
27540;DHT22;15906;52.046;4.724;2023-04-03T13:48:44;11.30;79.90
27540;DHT22;15906;52.046;4.724;2023-04-03T13:59:04;11.30;80.70
27540;DHT22;15906;52.046;4.724;2023-04-03T14:06:37;11.30;80.30
27540;DHT22;15906;52.046;4.724;2023-04-03T14:09:03;11.30;81.90
27540;DHT22;15906;52.046;4.724;2023-04-03T14:11:30;11.30;79.80
27540;DHT22;15906;52.046;4.724;2023-04-03T14:13:59;11.30;78.50
27540;DHT22;15906;52.046;4.724;2023-04-03T14:16:27;11.10;78.20
27540;DHT22;15906;52.046;4.724;2023-04-03T14:18:54;11.10;80.50
27540;DHT22;15906;52.046;4.724;2023-04-03T14:21:20;11.10;81.30
27540;DHT22;15906;52.046;4.724;2023-04-03T14:23:47;11.30;82.20
27540;DHT22;15906;52.046;4.724;2023-04-03T14:26:22;11.20;76.70
27540;DHT22;15906;52.046;4.724;2023-04-03T14:28:51;11.00;79.70
27540;DHT22;15906;52.046;4.724;2023-04-03T14:31:18;11.00;80.20
27540;DHT22;15906;52.046;4.724;2023-04-03T14:33:45;10.90;78.50
27540;DHT22;15906;52.046;4.724;2023-04-03T14:36:22;10.90;79.40
27540;DHT22;15906;52.046;4.724;2023-04-03T14:38:50;10.80;81.50
27540;DHT22;15906;52.046;4.724;2023-04-03T14:41:19;10.70;81.30
27540;DHT22;15906;52.046;4.724;2023-04-03T14:43:46;10.60;81.00
27540;DHT22;15906;52.046;4.724;2023-04-03T14:46:15;10.60;81.20
27540;DHT22;15906;52.046;4.724;2023-04-03T14:48:41;10.60;81.40
27540;DHT22;15906;52.046;4.724;2023-04-03T14:51:06;10.60;82.30
27540;DHT22;15906;52.046;4.724;2023-04-03T14:53:32;10.50;82.60
27540;DHT22;15906;52.046;4.724;2023-04-03T14:55:58;10.50;83.90
27540;DHT22;15906;52.046;4.724;2023-04-03T14:58:23;10.50;82.50
27540;DHT22;15906;52.046;4.724;2023-04-03T15:00:49;10.50;83.60
27540;DHT22;15906;52.046;4.724;2023-04-03T15:03:17;10.60;81.90
27540;DHT22;15906;52.046;4.724;2023-04-03T15:05:44;10.50;82.60
27540;DHT22;15906;52.046;4.724;2023-04-03T15:08:29;10.40;84.50
27540;DHT22;15906;52.046;4.724;2023-04-03T15:10:55;10.40;82.10
27540;DHT22;15906;52.046;4.724;2023-04-03T15:13:22;10.40;82.40
27540;DHT22;15906;52.046;4.724;2023-04-03T15:15:49;10.30;86.40
27540;DHT22;15906;52.046;4.724;2023-04-03T15:18:28;10.30;82.50
27540;DHT22;15906;52.046;4.724;2023-04-03T15:20:55;10.20;80.60
27540;DHT22;15906;52.046;4.724;2023-04-03T15:23:21;10.20;83.30
27540;DHT22;15906;52.046;4.724;2023-04-03T15:25:51;10.20;80.90
27540;DHT22;15906;52.046;4.724;2023-04-03T15:28:28;10.20;83.20
27540;DHT22;15906;52.046;4.724;2023-04-03T15:30:54;10.20;81.70
27540;DHT22;15906;52.046;4.724;2023-04-03T15:33:20;10.20;82.20
27540;DHT22;15906;52.046;4.724;2023-04-03T15:35:45;10.10;83.70
27540;DHT22;15906;52.046;4.724;2023-04-03T15:38:11;10.10;82.20
27540;DHT22;15906;52.046;4.724;2023-04-03T15:40:37;10.10;83.60
27540;DHT22;15906;52.046;4.724;2023-04-03T15:43:04;9.90;82.00
27540;DHT22;15906;52.046;4.724;2023-04-03T15:45:31;9.90;83.20
27540;DHT22;15906;52.046;4.724;2023-04-03T15:47:57;10.00;80.80
27540;DHT22;15906;52.046;4.724;2023-04-03T15:50:22;10.00;82.80
27540;DHT22;15906;52.046;4.724;2023-04-03T15:52:52;9.90;83.80
27540;DHT22;15906;52.046;4.724;2023-04-03T15:55:24;10.00;84.10
27540;DHT22;15906;52.046;4.724;2023-04-03T15:57:50;9.90;84.80
27540;DHT22;15906;52.046;4.724;2023-04-03T16:00:16;9.90;84.50
27540;DHT22;15906;52.046;4.724;2023-04-03T16:02:44;9.90;84.50
27540;DHT22;15906;52.046;4.724;2023-04-03T16:05:10;9.80;84.30
27540;DHT22;15906;52.046;4.724;2023-04-03T16:07:39;9.80;83.90
27540;DHT22;15906;52.046;4.724;2023-04-03T16:10:07;9.80;85.00
27540;DHT22;15906;52.046;4.724;2023-04-03T16:12:33;9.80;85.50
27540;DHT22;15906;52.046;4.724;2023-04-03T16:14:58;9.80;87.10
27540;DHT22;15906;52.046;4.724;2023-04-03T16:17:25;9.80;83.90
27540;DHT22;15906;52.046;4.724;2023-04-03T16:19:51;9.80;84.50
27540;DHT22;15906;52.046;4.724;2023-04-03T16:22:17;9.80;86.30
27540;DHT22;15906;52.046;4.724;2023-04-03T16:24:43;9.70;87.00
27540;DHT22;15906;52.046;4.724;2023-04-03T16:27:08;9.70;85.90
27540;DHT22;15906;52.046;4.724;2023-04-03T16:29:34;9.60;84.80
27540;DHT22;15906;52.046;4.724;2023-04-03T16:31:59;9.70;86.90
27540;DHT22;15906;52.046;4.724;2023-04-03T16:34:26;9.60;87.40
27540;DHT22;15906;52.046;4.724;2023-04-03T16:36:52;9.60;88.10
27540;DHT22;15906;52.046;4.724;2023-04-03T16:39:18;9.60;87.40
27540;DHT22;15906;52.046;4.724;2023-04-03T16:41:43;9.60;88.70
27540;DHT22;15906;52.046;4.724;2023-04-03T16:44:10;9.60;87.60
27540;DHT22;15906;52.046;4.724;2023-04-03T16:46:36;9.60;88.40
27540;DHT22;15906;52.046;4.724;2023-04-03T16:49:02;9.50;89.90
27540;DHT22;15906;52.046;4.724;2023-04-03T16:51:28;9.50;90.20
27540;DHT22;15906;52.046;4.724;2023-04-03T16:53:53;9.50;90.70
27540;DHT22;15906;52.046;4.724;2023-04-03T16:56:19;9.40;91.00
27540;DHT22;15906;52.046;4.724;2023-04-03T16:58:45;9.40;91.10
27540;DHT22;15906;52.046;4.724;2023-04-03T17:01:16;9.40;90.80
27540;DHT22;15906;52.046;4.724;2023-04-03T17:03:42;9.40;91.30
27540;DHT22;15906;52.046;4.724;2023-04-03T17:06:08;9.40;90.70
27540;DHT22;15906;52.046;4.724;2023-04-03T17:08:41;9.40;90.70
27540;DHT22;15906;52.046;4.724;2023-04-03T17:11:07;9.50;91.60
27540;DHT22;15906;52.046;4.724;2023-04-03T17:13:32;9.40;91.30
27540;DHT22;15906;52.046;4.724;2023-04-03T17:15:59;9.40;91.80
27540;DHT22;15906;52.046;4.724;2023-04-03T17:18:26;9.40;90.30
27540;DHT22;15906;52.046;4.724;2023-04-03T17:20:52;9.40;90.10
27540;DHT22;15906;52.046;4.724;2023-04-03T17:23:17;9.30;91.50
27540;DHT22;15906;52.046;4.724;2023-04-03T17:25:43;9.20;91.20
27540;DHT22;15906;52.046;4.724;2023-04-03T17:28:08;9.20;91.40